createdAt,value
2023-05-25T00:01:01.302Z,8.54
2023-05-25T00:03:32.338Z,8.74
2023-05-25T00:06:03.367Z,8.69
2023-05-25T00:08:31.811Z,8.56
2023-05-25T00:10:59.468Z,8.58
2023-05-25T00:13:27.871Z,8.41
2023-05-25T00:15:56.297Z,8.28
2023-05-25T00:18:25.196Z,8.27
2023-05-25T00:20:54.698Z,8.19
2023-05-25T00:23:23.178Z,8.10
2023-05-25T00:25:52.790Z,8.06
2023-05-25T00:28:20.200Z,8.02
2023-05-25T00:30:48.158Z,7.95
2023-05-25T00:33:17.229Z,8.05
2023-05-25T00:35:45.229Z,8.12
2023-05-25T00:38:19.381Z,8.15
2023-05-25T00:40:47.000Z,8.24
2023-05-25T00:43:14.656Z,8.12
2023-05-25T00:45:43.363Z,8.13
2023-05-25T00:48:11.622Z,8.08
2023-05-25T00:50:43.157Z,8.04
2023-05-25T00:53:11.826Z,8.24
2023-05-25T00:55:53.743Z,8.18
2023-05-25T00:58:28.583Z,8.06
2023-05-25T01:00:58.913Z,7.80
2023-05-25T01:03:30.038Z,7.71
2023-05-25T01:05:59.291Z,7.88
2023-05-25T01:08:28.444Z,7.97
2023-05-25T01:10:58.531Z,7.77
2023-05-25T01:13:28.621Z,7.71
2023-05-25T01:15:57.576Z,7.84
2023-05-25T01:18:25.063Z,7.81
2023-05-25T01:21:13.765Z,8.09
2023-05-25T01:24:00.746Z,8.14
2023-05-25T01:26:32.341Z,8.03
2023-05-25T01:29:02.463Z,7.97
2023-05-25T01:31:30.503Z,7.95
2023-05-25T01:33:58.549Z,7.83
2023-05-25T01:36:25.960Z,7.85
2023-05-25T01:38:53.548Z,7.82
2023-05-25T01:41:20.862Z,7.73
2023-05-25T01:43:54.740Z,7.80
2023-05-25T01:46:33.442Z,7.75
2023-05-25T01:49:09.149Z,7.66
2023-05-25T01:51:56.141Z,7.51
2023-05-25T01:54:47.694Z,7.50
2023-05-25T01:57:18.886Z,7.59
2023-05-25T01:59:47.682Z,7.55
2023-05-25T02:02:18.014Z,7.49
2023-05-25T02:04:47.963Z,7.34
2023-05-25T02:07:15.380Z,7.30
2023-05-25T02:09:42.587Z,7.41
2023-05-25T02:12:10.390Z,7.48
2023-05-25T02:14:37.654Z,7.48
2023-05-25T02:17:05.353Z,7.45
2023-05-25T02:19:32.608Z,7.37
2023-05-25T02:22:00.063Z,7.35
2023-05-25T02:24:27.583Z,7.41
2023-05-25T02:26:55.022Z,7.34
2023-05-25T02:29:23.573Z,7.41
2023-05-25T02:31:53.031Z,7.54
2023-05-25T02:34:26.612Z,7.60
2023-05-25T02:36:53.976Z,7.64
2023-05-25T02:39:21.584Z,7.76
2023-05-25T02:41:55.359Z,7.81
2023-05-25T02:44:23.060Z,7.79
2023-05-25T02:46:50.626Z,7.89
2023-05-25T02:49:17.912Z,7.95
2023-05-25T02:51:45.381Z,7.99
2023-05-25T02:54:12.858Z,8.04
2023-05-25T02:56:40.385Z,8.00
2023-05-25T02:59:08.149Z,7.96
2023-05-25T03:01:35.959Z,8.06
2023-05-25T03:04:03.475Z,8.04
2023-05-25T03:06:38.311Z,8.02
2023-05-25T03:09:06.819Z,8.22
2023-05-25T03:11:36.425Z,8.23
2023-05-25T03:14:03.828Z,8.38
2023-05-25T03:16:31.976Z,8.48
2023-05-25T03:19:01.300Z,8.58
2023-05-25T03:21:28.946Z,8.65
2023-05-25T03:23:56.182Z,8.77
2023-05-25T03:26:26.186Z,8.73
2023-05-25T03:28:53.578Z,8.80
2023-05-25T03:31:21.161Z,8.86
2023-05-25T03:33:49.499Z,8.93
2023-05-25T03:36:17.867Z,8.94
2023-05-25T03:38:45.730Z,9.01
2023-05-25T03:41:13.919Z,9.01
2023-05-25T03:43:41.575Z,8.97
2023-05-25T03:46:11.889Z,9.02
2023-05-25T03:48:39.512Z,9.05
2023-05-25T03:51:12.932Z,9.04
2023-05-25T03:53:41.669Z,9.11
2023-05-25T03:56:09.951Z,9.11
2023-05-25T03:58:37.364Z,9.15
2023-05-25T04:01:05.537Z,9.15
2023-05-25T04:03:34.348Z,9.21
2023-05-25T04:06:02.433Z,9.23
2023-05-25T04:08:29.793Z,9.27
2023-05-25T04:10:57.852Z,9.18
2023-05-25T04:13:25.418Z,9.18
2023-05-25T04:15:52.772Z,9.16
2023-05-25T04:18:20.835Z,9.18
2023-05-25T04:20:48.587Z,9.19
2023-05-25T04:23:16.250Z,9.24
2023-05-25T04:25:43.739Z,9.24
2023-05-25T04:28:12.618Z,9.30
2023-05-25T04:30:42.012Z,9.22
2023-05-25T04:33:12.745Z,9.31
2023-05-25T04:35:42.308Z,9.41
2023-05-25T04:38:12.737Z,9.46
2023-05-25T04:40:49.276Z,9.51
2023-05-25T04:43:21.053Z,9.54
2023-05-25T04:45:48.591Z,9.60
2023-05-25T04:48:16.148Z,9.68
2023-05-25T04:50:43.905Z,9.70
2023-05-25T04:53:11.465Z,9.79
2023-05-25T04:55:40.500Z,9.84
2023-05-25T04:58:08.225Z,9.85
2023-05-25T05:00:36.741Z,9.97
2023-05-25T05:03:03.978Z,10.00
2023-05-25T05:05:31.650Z,10.08
2023-05-25T05:08:00.116Z,10.18
2023-05-25T05:10:28.423Z,10.30
2023-05-25T05:12:56.262Z,10.26
2023-05-25T05:15:24.023Z,10.42
2023-05-25T05:17:57.682Z,10.44
2023-05-25T05:20:26.950Z,10.56
2023-05-25T05:22:54.862Z,10.50
2023-05-25T05:25:23.455Z,10.55
2023-05-25T05:27:51.580Z,10.65
2023-05-25T05:30:19.994Z,10.75
2023-05-25T05:32:48.435Z,10.88
2023-05-25T05:35:15.861Z,10.86
2023-05-25T05:37:44.441Z,10.92
2023-05-25T05:40:12.218Z,11.07
2023-05-25T05:42:39.813Z,11.14
2023-05-25T05:45:07.757Z,11.22
2023-05-25T05:47:36.392Z,11.29
2023-05-25T05:50:08.573Z,11.30
2023-05-25T05:52:36.858Z,11.34
2023-05-25T05:55:06.849Z,11.42
2023-05-25T05:57:34.374Z,11.41
2023-05-25T06:00:01.819Z,11.53
2023-05-25T06:02:29.004Z,11.55
2023-05-25T06:04:56.675Z,11.56
2023-05-25T06:07:25.063Z,11.58
2023-05-25T06:09:58.902Z,11.64
2023-05-25T06:12:26.945Z,11.75
2023-05-25T06:14:54.103Z,11.66
2023-05-25T06:17:21.872Z,11.77
2023-05-25T06:19:50.347Z,11.79
2023-05-25T06:22:17.989Z,11.84
2023-05-25T06:24:45.542Z,11.77
2023-05-25T06:27:13.720Z,11.91
2023-05-25T06:29:40.848Z,11.99
2023-05-25T06:32:08.250Z,12.03
2023-05-25T06:34:38.030Z,12.07
2023-05-25T06:37:06.058Z,12.05
2023-05-25T06:39:33.368Z,12.04
2023-05-25T06:42:02.767Z,12.02
2023-05-25T06:44:30.303Z,12.02
2023-05-25T06:46:57.686Z,12.07
2023-05-25T06:49:26.141Z,12.06
2023-05-25T06:51:54.710Z,12.05
2023-05-25T06:54:22.106Z,12.12
2023-05-25T06:56:49.698Z,12.04
2023-05-25T06:59:18.665Z,12.00
2023-05-25T07:01:49.317Z,12.05
2023-05-25T07:04:17.126Z,12.18
2023-05-25T07:06:44.659Z,12.21
2023-05-25T07:09:13.017Z,12.14
2023-05-25T07:11:40.458Z,12.02
2023-05-25T07:14:07.908Z,11.88
2023-05-25T07:16:35.423Z,12.08
2023-05-25T07:19:02.935Z,12.01
2023-05-25T07:21:36.949Z,12.06
2023-05-25T07:24:06.093Z,12.04
2023-05-25T07:26:34.231Z,12.12
2023-05-25T07:29:01.681Z,12.09
2023-05-25T07:31:28.938Z,12.15
2023-05-25T07:33:56.430Z,12.30
2023-05-25T07:36:25.192Z,12.33
2023-05-25T07:38:53.044Z,12.35
2023-05-25T07:41:20.395Z,12.40
2023-05-25T07:43:49.888Z,12.47
2023-05-25T07:46:17.796Z,12.52
2023-05-25T07:48:45.104Z,12.46
2023-05-25T07:51:12.686Z,12.55
2023-05-25T07:53:42.857Z,12.60
2023-05-25T07:56:11.267Z,12.58
2023-05-25T07:58:39.711Z,12.60
2023-05-25T08:01:09.238Z,12.51
2023-05-25T08:03:49.126Z,12.64
2023-05-25T08:06:17.711Z,12.70
2023-05-25T08:08:45.334Z,12.75
2023-05-25T08:11:13.327Z,12.75
2023-05-25T08:13:40.832Z,12.69
2023-05-25T08:16:08.894Z,12.75
2023-05-25T08:18:36.174Z,12.85
2023-05-25T08:21:03.749Z,12.74
2023-05-25T08:23:32.350Z,12.88
2023-05-25T08:26:01.130Z,13.08
2023-05-25T08:28:29.656Z,13.30
2023-05-25T08:30:59.132Z,13.52
2023-05-25T08:33:26.490Z,13.59
2023-05-25T08:35:54.098Z,13.67
2023-05-25T08:38:25.476Z,13.65
2023-05-25T08:41:06.929Z,13.92
2023-05-25T08:43:35.156Z,13.98
2023-05-25T08:46:07.446Z,14.19
2023-05-25T08:48:42.498Z,13.90
2023-05-25T08:51:14.203Z,13.73
2023-05-25T08:53:43.787Z,13.82
2023-05-25T08:56:20.816Z,14.02
2023-05-25T08:59:12.717Z,13.99
2023-05-25T09:01:46.670Z,13.91
2023-05-25T09:04:14.933Z,13.75
2023-05-25T09:06:57.105Z,13.83
2023-05-25T09:09:30.407Z,13.82
2023-05-25T09:11:58.078Z,13.91
2023-05-25T09:14:25.412Z,14.00
2023-05-25T09:16:52.776Z,14.17
2023-05-25T09:19:26.155Z,14.14
2023-05-25T09:22:02.998Z,13.85
2023-05-25T09:24:44.562Z,14.07
2023-05-25T09:27:13.533Z,14.05
2023-05-25T09:29:40.905Z,14.06
2023-05-25T09:32:08.514Z,14.15
2023-05-25T09:34:36.363Z,14.31
2023-05-25T09:37:14.976Z,14.54
2023-05-25T09:39:46.112Z,14.45
2023-05-25T09:42:13.487Z,14.41
2023-05-25T09:44:43.064Z,14.49
2023-05-25T09:47:13.639Z,14.60
2023-05-25T09:49:43.085Z,14.90
2023-05-25T09:52:12.336Z,14.97
2023-05-25T09:54:39.798Z,15.10
2023-05-25T09:57:13.373Z,15.27
2023-05-25T09:59:42.520Z,15.25
2023-05-25T10:02:10.069Z,15.26
2023-05-25T10:04:37.510Z,15.24
2023-05-25T10:07:06.162Z,15.40
2023-05-25T10:09:39.924Z,15.40
2023-05-25T10:12:07.693Z,15.57
2023-05-25T10:14:38.244Z,15.57
2023-05-25T10:17:09.766Z,15.29
2023-05-25T10:19:51.148Z,15.28
2023-05-25T10:22:26.128Z,15.27
2023-05-25T10:24:57.443Z,15.39
2023-05-25T10:27:30.010Z,15.48
2023-05-25T10:30:00.199Z,15.68
2023-05-25T10:32:29.949Z,15.79
2023-05-25T10:34:58.736Z,15.86
2023-05-25T10:37:30.197Z,15.65
2023-05-25T10:39:58.647Z,15.47
2023-05-25T10:42:30.495Z,15.52
2023-05-25T10:44:58.744Z,15.62
2023-05-25T10:47:26.526Z,15.67
2023-05-25T10:50:02.080Z,15.62
2023-05-25T10:52:31.040Z,15.49
2023-05-25T10:55:04.581Z,15.52
2023-05-25T10:57:31.883Z,15.55
2023-05-25T11:00:10.657Z,15.66
2023-05-25T11:02:56.286Z,15.67
2023-05-25T11:05:31.421Z,15.69
2023-05-25T11:08:00.137Z,15.88
2023-05-25T11:10:49.208Z,16.08
2023-05-25T11:13:41.521Z,16.09
2023-05-25T11:16:40.427Z,16.30
2023-05-25T11:19:15.330Z,16.05
2023-05-25T11:21:45.487Z,16.16
2023-05-25T11:24:18.151Z,16.19
2023-05-25T11:27:01.227Z,15.95
2023-05-25T11:29:33.329Z,16.12
2023-05-25T11:32:01.481Z,16.09
2023-05-25T11:34:30.575Z,16.17
2023-05-25T11:37:04.420Z,16.12
2023-05-25T11:39:35.051Z,16.08
2023-05-25T11:42:07.645Z,16.02
2023-05-25T11:44:37.007Z,16.02
2023-05-25T11:47:13.767Z,16.23
2023-05-25T11:49:44.488Z,16.38
2023-05-25T11:52:14.866Z,16.36
2023-05-25T11:54:42.511Z,16.33
2023-05-25T11:57:25.351Z,16.40
2023-05-25T12:00:07.171Z,16.37
2023-05-25T12:02:42.328Z,16.52
2023-05-25T12:05:12.165Z,16.43
2023-05-25T12:07:47.744Z,16.35
2023-05-25T12:10:19.425Z,16.37
2023-05-25T12:12:51.751Z,16.57
2023-05-25T12:15:30.962Z,16.79
2023-05-25T12:17:58.480Z,16.93
2023-05-25T12:20:26.455Z,16.95
2023-05-25T12:22:55.925Z,16.99
2023-05-25T12:25:24.965Z,16.78
2023-05-25T12:28:12.654Z,16.52
2023-05-25T12:30:40.330Z,16.50
2023-05-25T12:33:08.188Z,16.72
2023-05-25T12:35:47.049Z,16.89
2023-05-25T12:38:18.331Z,16.96
2023-05-25T12:40:46.402Z,17.09
2023-05-25T12:43:15.588Z,17.24
2023-05-25T12:45:44.214Z,17.28
2023-05-25T12:48:12.239Z,17.38
2023-05-25T12:50:41.106Z,17.43
2023-05-25T12:53:09.083Z,17.44
2023-05-25T12:55:37.634Z,17.41
2023-05-25T12:58:07.549Z,17.43
2023-05-25T13:00:41.320Z,17.44
2023-05-25T13:03:08.691Z,17.40
2023-05-25T13:05:38.433Z,17.41
2023-05-25T13:08:07.349Z,17.56
2023-05-25T13:10:38.114Z,17.70
2023-05-25T13:13:05.483Z,17.76
2023-05-25T13:15:33.143Z,17.56
2023-05-25T13:18:00.587Z,17.63
2023-05-25T13:20:30.404Z,17.75
2023-05-25T13:22:57.931Z,17.68
2023-05-25T13:25:28.136Z,17.52
2023-05-25T13:27:58.390Z,17.47
2023-05-25T13:30:26.781Z,17.41
2023-05-25T13:32:54.432Z,17.49
2023-05-25T13:35:40.544Z,17.53
2023-05-25T13:38:10.908Z,17.63
2023-05-25T13:40:38.505Z,17.79
2023-05-25T13:43:07.116Z,17.90
2023-05-25T13:45:34.350Z,17.87
2023-05-25T13:48:03.987Z,17.95
2023-05-25T13:50:33.476Z,18.10
2023-05-25T13:53:07.230Z,18.17
2023-05-25T13:55:36.107Z,17.93
2023-05-25T13:58:05.474Z,17.89
2023-05-25T14:00:33.394Z,17.92
2023-05-25T14:03:00.632Z,17.97
2023-05-25T14:05:27.959Z,18.04
2023-05-25T14:07:56.394Z,18.07
2023-05-25T14:10:23.814Z,18.10
2023-05-25T14:12:52.369Z,17.83
2023-05-25T14:15:19.710Z,17.66
2023-05-25T14:17:46.914Z,17.40
2023-05-25T14:20:21.080Z,17.21
2023-05-25T14:22:48.804Z,17.45
2023-05-25T14:25:17.358Z,17.61
2023-05-25T14:27:44.656Z,17.79
2023-05-25T14:30:12.615Z,17.93
2023-05-25T14:32:40.285Z,18.04
2023-05-25T14:35:08.424Z,18.19
2023-05-25T14:37:36.105Z,18.35
2023-05-25T14:40:04.173Z,18.58
2023-05-25T14:42:31.459Z,18.72
2023-05-25T14:44:59.038Z,18.64
2023-05-25T14:47:26.375Z,18.48
2023-05-25T14:50:00.043Z,17.83
2023-05-25T14:52:27.509Z,18.02
2023-05-25T14:54:54.873Z,18.10
2023-05-25T14:57:22.312Z,18.18
2023-05-25T14:59:50.950Z,18.13
2023-05-25T15:02:18.222Z,18.24
2023-05-25T15:04:47.896Z,18.26
2023-05-25T15:07:16.353Z,18.33
2023-05-25T15:09:43.906Z,18.48
2023-05-25T15:12:12.323Z,18.56
2023-05-25T15:14:41.170Z,18.60
2023-05-25T15:17:09.731Z,18.73
2023-05-25T15:19:37.636Z,18.92
2023-05-25T15:22:06.292Z,19.23
2023-05-25T15:24:33.614Z,19.65
2023-05-25T15:27:01.888Z,20.16
2023-05-25T15:29:29.646Z,20.24
2023-05-25T15:31:57.073Z,20.42
2023-05-25T15:34:24.477Z,20.33
2023-05-25T15:36:52.012Z,20.41
2023-05-25T15:39:19.258Z,20.26
2023-05-25T15:41:48.019Z,19.72
2023-05-25T15:44:15.256Z,19.37
2023-05-25T15:46:44.289Z,19.22
2023-05-25T15:49:13.836Z,19.04
2023-05-25T15:51:44.106Z,19.16
2023-05-25T15:54:14.388Z,19.11
2023-05-25T15:56:43.397Z,19.19
2023-05-25T15:59:12.760Z,19.12
2023-05-25T16:01:40.358Z,19.13
2023-05-25T16:04:08.925Z,19.11
2023-05-25T16:06:42.507Z,19.06
2023-05-25T16:09:11.242Z,18.68
2023-05-25T16:11:39.499Z,18.38
2023-05-25T16:14:07.841Z,18.25
2023-05-25T16:16:35.462Z,17.91
2023-05-25T16:19:02.840Z,18.14
2023-05-25T16:21:30.357Z,18.03
2023-05-25T16:23:57.832Z,18.07
2023-05-25T16:26:25.209Z,18.25
2023-05-25T16:28:52.714Z,18.48
2023-05-25T16:31:20.088Z,18.51
2023-05-25T16:33:48.286Z,18.64
2023-05-25T16:36:17.436Z,18.18
2023-05-25T16:38:45.183Z,18.24
2023-05-25T16:41:12.734Z,18.28
2023-05-25T16:43:39.937Z,18.24
2023-05-25T16:46:07.604Z,18.09
2023-05-25T16:48:34.993Z,18.21
2023-05-25T16:51:02.626Z,18.37
2023-05-25T16:53:30.458Z,18.24
2023-05-25T16:55:58.819Z,18.29
2023-05-25T16:58:26.546Z,18.17
2023-05-25T17:00:53.716Z,17.92
2023-05-25T17:03:21.076Z,18.07
2023-05-25T17:05:48.721Z,18.08
2023-05-25T17:08:16.061Z,18.05
2023-05-25T17:10:47.798Z,17.88
2023-05-25T17:13:15.472Z,17.81
2023-05-25T17:15:43.196Z,17.71
2023-05-25T17:18:11.388Z,17.59
2023-05-25T17:20:39.031Z,17.45
2023-05-25T17:23:06.554Z,17.38
2023-05-25T17:25:34.330Z,17.53
2023-05-25T17:28:02.918Z,17.79
2023-05-25T17:30:30.295Z,17.73
2023-05-25T17:33:01.852Z,17.49
2023-05-25T17:35:32.160Z,17.63
2023-05-25T17:38:06.401Z,17.48
2023-05-25T17:40:35.715Z,17.36
2023-05-25T17:43:02.976Z,17.24
2023-05-25T17:45:30.449Z,17.20
2023-05-25T17:47:58.647Z,17.22
2023-05-25T17:50:25.908Z,17.25
2023-05-25T17:52:53.387Z,17.34
2023-05-25T17:55:21.905Z,17.32
2023-05-25T17:57:49.162Z,17.24
2023-05-25T18:00:20.288Z,17.15
2023-05-25T18:02:47.461Z,17.08
2023-05-25T18:05:19.103Z,17.02
2023-05-25T18:07:46.316Z,16.86
2023-05-25T18:10:14.969Z,16.72
2023-05-25T18:12:42.290Z,16.70
2023-05-25T18:15:10.814Z,16.57
2023-05-25T18:17:38.219Z,16.44
2023-05-25T18:20:11.938Z,16.10
2023-05-25T18:22:40.097Z,15.82
2023-05-25T18:25:08.076Z,15.98
2023-05-25T18:27:35.255Z,15.93
2023-05-25T18:30:08.901Z,15.90
2023-05-25T18:32:36.500Z,15.89
2023-05-25T18:35:06.307Z,15.71
2023-05-25T18:37:35.996Z,15.47
2023-05-25T18:40:07.397Z,15.44
2023-05-25T18:42:35.215Z,15.61
2023-05-25T18:45:02.951Z,15.48
2023-05-25T18:47:30.371Z,15.09
2023-05-25T18:49:57.832Z,15.08
2023-05-25T18:52:25.193Z,14.98
2023-05-25T18:54:53.775Z,14.76
2023-05-25T18:57:21.439Z,14.68
2023-05-25T18:59:48.622Z,14.72
2023-05-25T19:02:16.329Z,14.46
2023-05-25T19:04:43.793Z,14.52
2023-05-25T19:07:18.182Z,14.49
2023-05-25T19:09:45.686Z,14.35
2023-05-25T19:12:13.307Z,14.35
2023-05-25T19:14:40.533Z,14.36
2023-05-25T19:17:08.804Z,14.15
2023-05-25T19:19:35.877Z,14.09
2023-05-25T19:22:03.482Z,13.86
2023-05-25T19:24:31.070Z,13.92
2023-05-25T19:27:04.552Z,13.87
2023-05-25T19:29:34.010Z,13.59
2023-05-25T19:32:01.662Z,13.23
2023-05-25T19:34:30.002Z,12.81
2023-05-25T19:37:07.545Z,12.83
2023-05-25T19:39:38.410Z,12.94
2023-05-25T19:42:06.793Z,13.12
2023-05-25T19:44:34.268Z,13.16
2023-05-25T19:47:03.718Z,13.32
2023-05-25T19:49:32.191Z,13.25
2023-05-25T19:51:59.739Z,13.24
2023-05-25T19:54:27.018Z,13.25
2023-05-25T19:56:54.566Z,13.31
2023-05-25T19:59:28.248Z,13.27
2023-05-25T20:01:57.042Z,13.17
2023-05-25T20:04:31.944Z,12.86
2023-05-25T20:07:06.396Z,12.68
2023-05-25T20:09:35.370Z,12.76
2023-05-25T20:12:02.828Z,12.57
2023-05-25T20:14:34.154Z,12.70
2023-05-25T20:17:03.028Z,12.69
2023-05-25T20:19:37.484Z,12.61
2023-05-25T20:22:06.209Z,12.64
2023-05-25T20:24:33.538Z,12.45
2023-05-25T20:27:01.996Z,12.58
2023-05-25T20:29:29.318Z,12.62
2023-05-25T20:31:56.879Z,12.63
2023-05-25T20:34:24.244Z,12.73
2023-05-25T20:36:51.738Z,12.79
2023-05-25T20:39:19.877Z,12.66
2023-05-25T20:41:47.100Z,12.52
2023-05-25T20:44:14.613Z,12.40
2023-05-25T20:46:42.546Z,12.37
2023-05-25T20:49:10.113Z,12.55
2023-05-25T20:51:38.554Z,12.43
2023-05-25T20:54:06.094Z,12.40
2023-05-25T20:56:34.418Z,12.58
2023-05-25T20:59:02.064Z,12.37
2023-05-25T21:01:29.950Z,12.36
2023-05-25T21:03:59.603Z,12.65
2023-05-25T21:06:27.070Z,12.75
2023-05-25T21:08:54.612Z,12.84
2023-05-25T21:11:22.354Z,12.84
2023-05-25T21:13:49.865Z,12.72
2023-05-25T21:16:17.474Z,12.64
2023-05-25T21:18:44.835Z,12.66
2023-05-25T21:21:15.146Z,12.77
2023-05-25T21:23:42.294Z,12.88
2023-05-25T21:26:09.743Z,12.98
2023-05-25T21:28:37.294Z,12.99
2023-05-25T21:31:04.673Z,13.00
2023-05-25T21:33:36.071Z,12.92
2023-05-25T21:36:04.782Z,12.76
2023-05-25T21:38:37.812Z,12.57
2023-05-25T21:41:06.653Z,12.61
2023-05-25T21:43:34.229Z,12.73
2023-05-25T21:46:01.944Z,13.06
2023-05-25T21:48:31.210Z,13.15
2023-05-25T21:50:58.667Z,13.09
2023-05-25T21:53:26.077Z,13.21
2023-05-25T21:56:01.529Z,13.20
2023-05-25T21:58:28.900Z,13.24
2023-05-25T22:00:56.298Z,13.21
2023-05-25T22:03:23.741Z,13.28
2023-05-25T22:05:51.140Z,13.32
2023-05-25T22:08:18.492Z,13.31
2023-05-25T22:10:46.368Z,13.26
2023-05-25T22:13:14.210Z,13.31
2023-05-25T22:15:41.698Z,13.19
2023-05-25T22:18:09.974Z,13.13
2023-05-25T22:20:42.398Z,13.13
2023-05-25T22:23:13.449Z,13.09
2023-05-25T22:25:41.875Z,12.96
2023-05-25T22:28:09.939Z,13.14
2023-05-25T22:30:37.613Z,12.99
2023-05-25T22:33:06.165Z,12.95
2023-05-25T22:35:33.404Z,12.86
2023-05-25T22:38:01.040Z,12.93
2023-05-25T22:40:28.293Z,12.93
2023-05-25T22:42:55.873Z,12.83
2023-05-25T22:45:23.316Z,12.83
2023-05-25T22:47:51.717Z,12.80
2023-05-25T22:50:19.382Z,13.01
2023-05-25T22:52:47.903Z,13.25
2023-05-25T22:55:15.331Z,13.23
2023-05-25T22:57:43.847Z,13.30
2023-05-25T23:00:11.798Z,13.43
2023-05-25T23:02:38.922Z,13.40
2023-05-25T23:05:07.972Z,13.44
2023-05-25T23:07:42.420Z,13.44
2023-05-25T23:10:10.187Z,13.47
2023-05-25T23:12:43.463Z,13.32
2023-05-25T23:15:11.601Z,13.33
2023-05-25T23:17:38.822Z,13.19
2023-05-25T23:20:12.701Z,13.19
2023-05-25T23:22:39.905Z,13.24
2023-05-25T23:25:09.693Z,13.26
2023-05-25T23:27:38.254Z,13.16
2023-05-25T23:30:07.166Z,13.11
2023-05-25T23:32:36.842Z,13.28
2023-05-25T23:35:04.727Z,13.49
2023-05-25T23:37:32.409Z,13.60
2023-05-25T23:39:59.749Z,13.47
2023-05-25T23:42:28.990Z,13.42
2023-05-25T23:44:57.359Z,13.25
2023-05-25T23:47:25.905Z,13.32
2023-05-25T23:49:53.143Z,13.37
2023-05-25T23:52:20.693Z,13.43
2023-05-25T23:54:48.102Z,13.47
2023-05-25T23:57:15.631Z,13.50
2023-05-25T23:59:43.191Z,13.50
